sensor_id;sensor_type;location;lat;lon;timestamp;temperature;humidity
10451;DHT22;5273;51.290;6.918;2023-06-10T00:00:21;20.90;66.90
10451;DHT22;5273;51.290;6.918;2023-06-10T00:02:48;20.90;67.20
10451;DHT22;5273;51.290;6.918;2023-06-10T00:05:15;20.90;67.70
10451;DHT22;5273;51.290;6.918;2023-06-10T00:07:43;20.80;67.80
10451;DHT22;5273;51.290;6.918;2023-06-10T00:10:11;20.80;67.70
10451;DHT22;5273;51.290;6.918;2023-06-10T00:12:38;20.80;67.80
10451;DHT22;5273;51.290;6.918;2023-06-10T00:15:07;20.90;67.90
10451;DHT22;5273;51.290;6.918;2023-06-10T00:17:34;20.80;67.80
10451;DHT22;5273;51.290;6.918;2023-06-10T00:20:06;20.90;67.90
10451;DHT22;5273;51.290;6.918;2023-06-10T00:22:34;20.80;68.00
10451;DHT22;5273;51.290;6.918;2023-06-10T00:25:06;20.80;68.10
10451;DHT22;5273;51.290;6.918;2023-06-10T00:27:33;20.80;68.40
10451;DHT22;5273;51.290;6.918;2023-06-10T00:30:01;20.70;68.70
10451;DHT22;5273;51.290;6.918;2023-06-10T00:32:29;20.70;69.60
10451;DHT22;5273;51.290;6.918;2023-06-10T00:34:56;20.60;69.60
10451;DHT22;5273;51.290;6.918;2023-06-10T00:37:23;20.60;69.80
10451;DHT22;5273;51.290;6.918;2023-06-10T00:39:50;20.60;69.40
10451;DHT22;5273;51.290;6.918;2023-06-10T00:42:18;20.60;70.40
10451;DHT22;5273;51.290;6.918;2023-06-10T00:44:45;20.40;69.50
10451;DHT22;5273;51.290;6.918;2023-06-10T00:47:12;20.60;70.50
10451;DHT22;5273;51.290;6.918;2023-06-10T00:49:39;20.50;69.70
10451;DHT22;5273;51.290;6.918;2023-06-10T00:52:07;20.60;69.80
10451;DHT22;5273;51.290;6.918;2023-06-10T00:54:36;20.60;69.80
10451;DHT22;5273;51.290;6.918;2023-06-10T00:57:04;20.50;69.70
10451;DHT22;5273;51.290;6.918;2023-06-10T00:59:33;20.60;69.80
10451;DHT22;5273;51.290;6.918;2023-06-10T01:02:01;20.50;69.50
10451;DHT22;5273;51.290;6.918;2023-06-10T01:04:29;20.50;69.60
10451;DHT22;5273;51.290;6.918;2023-06-10T01:07:03;20.50;69.60
10451;DHT22;5273;51.290;6.918;2023-06-10T01:09:38;20.50;69.60
10451;DHT22;5273;51.290;6.918;2023-06-10T01:12:12;20.50;69.60
10451;DHT22;5273;51.290;6.918;2023-06-10T01:14:42;20.50;69.60
10451;DHT22;5273;51.290;6.918;2023-06-10T01:17:10;20.50;69.70
10451;DHT22;5273;51.290;6.918;2023-06-10T01:19:37;20.50;69.60
10451;DHT22;5273;51.290;6.918;2023-06-10T01:22:07;20.50;69.70
10451;DHT22;5273;51.290;6.918;2023-06-10T01:24:34;20.50;69.80
10451;DHT22;5273;51.290;6.918;2023-06-10T01:27:03;20.50;69.80
10451;DHT22;5273;51.290;6.918;2023-06-10T01:29:37;20.50;70.00
10451;DHT22;5273;51.290;6.918;2023-06-10T01:32:13;20.40;69.90
10451;DHT22;5273;51.290;6.918;2023-06-10T01:34:42;20.40;70.00
10451;DHT22;5273;51.290;6.918;2023-06-10T01:37:13;20.40;70.10
10451;DHT22;5273;51.290;6.918;2023-06-10T01:39:42;20.40;70.20
10451;DHT22;5273;51.290;6.918;2023-06-10T01:42:10;20.30;70.30
10451;DHT22;5273;51.290;6.918;2023-06-10T01:44:39;20.30;70.30
10451;DHT22;5273;51.290;6.918;2023-06-10T01:47:07;20.30;70.30
10451;DHT22;5273;51.290;6.918;2023-06-10T01:49:34;20.30;70.50
10451;DHT22;5273;51.290;6.918;2023-06-10T01:52:01;20.30;70.70
10451;DHT22;5273;51.290;6.918;2023-06-10T01:54:29;20.20;70.50
10451;DHT22;5273;51.290;6.918;2023-06-10T01:56:56;20.20;70.80
10451;DHT22;5273;51.290;6.918;2023-06-10T01:59:23;20.20;71.00
10451;DHT22;5273;51.290;6.918;2023-06-10T02:01:50;20.20;71.20
10451;DHT22;5273;51.290;6.918;2023-06-10T02:04:17;20.20;71.20
10451;DHT22;5273;51.290;6.918;2023-06-10T02:06:44;20.20;71.50
10451;DHT22;5273;51.290;6.918;2023-06-10T02:09:11;20.10;71.60
10451;DHT22;5273;51.290;6.918;2023-06-10T02:11:39;20.10;71.60
10451;DHT22;5273;51.290;6.918;2023-06-10T02:14:05;20.10;71.90
10451;DHT22;5273;51.290;6.918;2023-06-10T02:16:32;20.00;72.40
10451;DHT22;5273;51.290;6.918;2023-06-10T02:18:59;20.00;72.30
10451;DHT22;5273;51.290;6.918;2023-06-10T02:21:26;19.90;72.20
10451;DHT22;5273;51.290;6.918;2023-06-10T02:23:52;19.90;72.40
10451;DHT22;5273;51.290;6.918;2023-06-10T02:26:19;19.90;72.10
10451;DHT22;5273;51.290;6.918;2023-06-10T02:28:47;19.90;72.00
10451;DHT22;5273;51.290;6.918;2023-06-10T02:31:14;19.90;71.80
10451;DHT22;5273;51.290;6.918;2023-06-10T02:33:43;19.90;71.80
10451;DHT22;5273;51.290;6.918;2023-06-10T02:36:10;19.90;72.60
10451;DHT22;5273;51.290;6.918;2023-06-10T02:38:38;19.90;71.80
10451;DHT22;5273;51.290;6.918;2023-06-10T02:41:05;19.90;72.20
10451;DHT22;5273;51.290;6.918;2023-06-10T02:43:32;19.90;72.50
10451;DHT22;5273;51.290;6.918;2023-06-10T02:46:00;19.90;73.00
10451;DHT22;5273;51.290;6.918;2023-06-10T02:48:28;19.80;73.20
10451;DHT22;5273;51.290;6.918;2023-06-10T02:50:54;19.80;73.50
10451;DHT22;5273;51.290;6.918;2023-06-10T02:53:21;19.70;73.60
10451;DHT22;5273;51.290;6.918;2023-06-10T02:55:48;19.70;74.00
10451;DHT22;5273;51.290;6.918;2023-06-10T02:58:15;19.60;75.40
10451;DHT22;5273;51.290;6.918;2023-06-10T03:00:42;19.50;75.60
10451;DHT22;5273;51.290;6.918;2023-06-10T03:03:10;19.40;75.80
10451;DHT22;5273;51.290;6.918;2023-06-10T03:05:37;19.30;75.50
10451;DHT22;5273;51.290;6.918;2023-06-10T03:08:04;19.30;75.40
10451;DHT22;5273;51.290;6.918;2023-06-10T03:10:31;19.30;75.60
10451;DHT22;5273;51.290;6.918;2023-06-10T03:12:58;19.30;75.80
10451;DHT22;5273;51.290;6.918;2023-06-10T03:15:25;19.30;75.60
10451;DHT22;5273;51.290;6.918;2023-06-10T03:17:54;19.30;76.00
10451;DHT22;5273;51.290;6.918;2023-06-10T03:20:22;19.20;75.30
10451;DHT22;5273;51.290;6.918;2023-06-10T03:22:50;19.20;75.30
10451;DHT22;5273;51.290;6.918;2023-06-10T03:25:17;19.20;75.50
10451;DHT22;5273;51.290;6.918;2023-06-10T03:27:46;19.20;75.50
10451;DHT22;5273;51.290;6.918;2023-06-10T03:30:14;19.20;75.50
10451;DHT22;5273;51.290;6.918;2023-06-10T03:32:41;19.20;75.60
10451;DHT22;5273;51.290;6.918;2023-06-10T03:35:08;19.20;75.40
10451;DHT22;5273;51.290;6.918;2023-06-10T03:37:36;19.20;76.50
10451;DHT22;5273;51.290;6.918;2023-06-10T03:40:04;19.20;75.60
10451;DHT22;5273;51.290;6.918;2023-06-10T03:42:31;19.10;75.60
10451;DHT22;5273;51.290;6.918;2023-06-10T03:44:58;19.10;75.60
10451;DHT22;5273;51.290;6.918;2023-06-10T03:47:24;19.10;75.60
10451;DHT22;5273;51.290;6.918;2023-06-10T03:49:51;19.10;75.70
10451;DHT22;5273;51.290;6.918;2023-06-10T03:52:18;19.10;75.80
10451;DHT22;5273;51.290;6.918;2023-06-10T03:54:46;19.10;76.10
10451;DHT22;5273;51.290;6.918;2023-06-10T03:57:13;19.10;76.10
10451;DHT22;5273;51.290;6.918;2023-06-10T03:59:40;19.10;76.00
10451;DHT22;5273;51.290;6.918;2023-06-10T04:02:06;19.10;76.10
10451;DHT22;5273;51.290;6.918;2023-06-10T04:04:34;19.10;76.00
10451;DHT22;5273;51.290;6.918;2023-06-10T04:07:01;19.20;75.80
10451;DHT22;5273;51.290;6.918;2023-06-10T04:09:28;19.20;75.60
10451;DHT22;5273;51.290;6.918;2023-06-10T04:11:57;19.20;75.20
10451;DHT22;5273;51.290;6.918;2023-06-10T04:14:23;19.30;75.00
10451;DHT22;5273;51.290;6.918;2023-06-10T04:16:50;19.30;74.70
10451;DHT22;5273;51.290;6.918;2023-06-10T04:19:17;19.40;74.50
10451;DHT22;5273;51.290;6.918;2023-06-10T04:21:44;19.40;74.30
10451;DHT22;5273;51.290;6.918;2023-06-10T04:24:11;19.50;74.10
10451;DHT22;5273;51.290;6.918;2023-06-10T04:26:37;19.50;73.90
10451;DHT22;5273;51.290;6.918;2023-06-10T04:29:06;19.60;74.10
10451;DHT22;5273;51.290;6.918;2023-06-10T04:31:32;19.60;74.10
10451;DHT22;5273;51.290;6.918;2023-06-10T04:33:59;19.70;73.80
10451;DHT22;5273;51.290;6.918;2023-06-10T04:36:27;19.70;73.70
10451;DHT22;5273;51.290;6.918;2023-06-10T04:38:54;19.80;74.30
10451;DHT22;5273;51.290;6.918;2023-06-10T04:41:21;19.80;73.30
10451;DHT22;5273;51.290;6.918;2023-06-10T04:43:48;19.80;74.00
10451;DHT22;5273;51.290;6.918;2023-06-10T04:46:16;19.90;73.60
10451;DHT22;5273;51.290;6.918;2023-06-10T04:48:43;19.90;73.70
10451;DHT22;5273;51.290;6.918;2023-06-10T04:51:12;20.00;74.60
10451;DHT22;5273;51.290;6.918;2023-06-10T04:53:39;20.00;74.10
10451;DHT22;5273;51.290;6.918;2023-06-10T04:56:07;20.10;74.20
10451;DHT22;5273;51.290;6.918;2023-06-10T04:58:34;20.20;74.70
10451;DHT22;5273;51.290;6.918;2023-06-10T05:01:01;20.30;76.40
10451;DHT22;5273;51.290;6.918;2023-06-10T05:03:29;20.30;77.10
10451;DHT22;5273;51.290;6.918;2023-06-10T05:05:56;20.40;77.20
10451;DHT22;5273;51.290;6.918;2023-06-10T05:08:23;20.40;77.30
10451;DHT22;5273;51.290;6.918;2023-06-10T05:10:50;20.50;76.90
10451;DHT22;5273;51.290;6.918;2023-06-10T05:13:17;20.60;78.70
10451;DHT22;5273;51.290;6.918;2023-06-10T05:15:44;20.70;78.00
10451;DHT22;5273;51.290;6.918;2023-06-10T05:18:12;20.70;77.20
10451;DHT22;5273;51.290;6.918;2023-06-10T05:20:40;20.80;78.00
10451;DHT22;5273;51.290;6.918;2023-06-10T05:23:07;20.90;79.20
10451;DHT22;5273;51.290;6.918;2023-06-10T05:25:34;21.00;79.10
10451;DHT22;5273;51.290;6.918;2023-06-10T05:28:01;21.10;79.00
10451;DHT22;5273;51.290;6.918;2023-06-10T05:30:28;21.10;77.20
10451;DHT22;5273;51.290;6.918;2023-06-10T05:32:55;21.30;77.40
10451;DHT22;5273;51.290;6.918;2023-06-10T05:35:22;21.40;77.50
10451;DHT22;5273;51.290;6.918;2023-06-10T05:37:51;21.60;74.80
10451;DHT22;5273;51.290;6.918;2023-06-10T05:40:18;21.70;76.80
10451;DHT22;5273;51.290;6.918;2023-06-10T05:42:45;21.90;77.60
10451;DHT22;5273;51.290;6.918;2023-06-10T05:45:12;22.10;75.90
10451;DHT22;5273;51.290;6.918;2023-06-10T05:47:39;22.30;75.90
10451;DHT22;5273;51.290;6.918;2023-06-10T05:50:06;22.40;77.00
10451;DHT22;5273;51.290;6.918;2023-06-10T05:52:34;22.60;73.60
10451;DHT22;5273;51.290;6.918;2023-06-10T05:55:02;22.80;72.00
10451;DHT22;5273;51.290;6.918;2023-06-10T05:57:30;22.90;68.70
10451;DHT22;5273;51.290;6.918;2023-06-10T05:59:57;23.00;69.90
10451;DHT22;5273;51.290;6.918;2023-06-10T06:02:24;23.20;68.40
10451;DHT22;5273;51.290;6.918;2023-06-10T06:04:51;23.40;66.80
10451;DHT22;5273;51.290;6.918;2023-06-10T06:07:18;23.60;66.10
10451;DHT22;5273;51.290;6.918;2023-06-10T06:09:46;23.90;65.80
10451;DHT22;5273;51.290;6.918;2023-06-10T06:12:14;24.20;63.30
10451;DHT22;5273;51.290;6.918;2023-06-10T06:14:41;24.40;63.90
10451;DHT22;5273;51.290;6.918;2023-06-10T06:17:08;24.70;63.30
10451;DHT22;5273;51.290;6.918;2023-06-10T06:19:34;25.00;61.90
10451;DHT22;5273;51.290;6.918;2023-06-10T06:22:01;25.30;61.00
10451;DHT22;5273;51.290;6.918;2023-06-10T06:24:28;25.80;62.50
10451;DHT22;5273;51.290;6.918;2023-06-10T06:26:55;26.30;60.30
10451;DHT22;5273;51.290;6.918;2023-06-10T06:29:23;26.80;58.00
10451;DHT22;5273;51.290;6.918;2023-06-10T06:31:50;27.30;55.90
10451;DHT22;5273;51.290;6.918;2023-06-10T06:34:17;27.70;55.30
10451;DHT22;5273;51.290;6.918;2023-06-10T06:36:43;28.30;55.00
10451;DHT22;5273;51.290;6.918;2023-06-10T06:39:10;28.90;53.90
10451;DHT22;5273;51.290;6.918;2023-06-10T06:41:37;29.50;52.20
10451;DHT22;5273;51.290;6.918;2023-06-10T06:44:04;30.10;50.40
10451;DHT22;5273;51.290;6.918;2023-06-10T06:46:32;30.60;49.20
10451;DHT22;5273;51.290;6.918;2023-06-10T06:48:59;30.90;47.90
10451;DHT22;5273;51.290;6.918;2023-06-10T06:51:26;31.30;46.80
10451;DHT22;5273;51.290;6.918;2023-06-10T06:53:52;31.50;45.10
10451;DHT22;5273;51.290;6.918;2023-06-10T06:56:22;31.80;44.80
10451;DHT22;5273;51.290;6.918;2023-06-10T06:58:49;32.10;45.20
10451;DHT22;5273;51.290;6.918;2023-06-10T07:01:16;32.50;44.30
10451;DHT22;5273;51.290;6.918;2023-06-10T07:03:44;32.90;43.70
10451;DHT22;5273;51.290;6.918;2023-06-10T07:06:11;33.30;42.30
10451;DHT22;5273;51.290;6.918;2023-06-10T07:08:38;33.80;43.00
10451;DHT22;5273;51.290;6.918;2023-06-10T07:11:05;34.20;41.60
10451;DHT22;5273;51.290;6.918;2023-06-10T07:13:32;34.50;40.80
10451;DHT22;5273;51.290;6.918;2023-06-10T07:15:59;34.90;39.10
10451;DHT22;5273;51.290;6.918;2023-06-10T07:18:25;35.40;39.00
10451;DHT22;5273;51.290;6.918;2023-06-10T07:20:53;35.60;39.40
10451;DHT22;5273;51.290;6.918;2023-06-10T07:23:20;35.60;38.10
10451;DHT22;5273;51.290;6.918;2023-06-10T07:25:47;35.70;38.20
10451;DHT22;5273;51.290;6.918;2023-06-10T07:28:14;35.80;37.80
10451;DHT22;5273;51.290;6.918;2023-06-10T07:30:41;36.10;37.40
10451;DHT22;5273;51.290;6.918;2023-06-10T07:33:07;36.30;36.20
10451;DHT22;5273;51.290;6.918;2023-06-10T07:35:36;36.50;36.80
10451;DHT22;5273;51.290;6.918;2023-06-10T07:38:04;36.80;36.20
10451;DHT22;5273;51.290;6.918;2023-06-10T07:40:30;37.00;35.60
10451;DHT22;5273;51.290;6.918;2023-06-10T07:42:57;36.90;35.00
10451;DHT22;5273;51.290;6.918;2023-06-10T07:45:24;36.90;35.40
10451;DHT22;5273;51.290;6.918;2023-06-10T07:47:51;37.30;36.30
10451;DHT22;5273;51.290;6.918;2023-06-10T07:50:21;37.80;34.40
10451;DHT22;5273;51.290;6.918;2023-06-10T07:52:48;37.90;34.70
10451;DHT22;5273;51.290;6.918;2023-06-10T07:55:16;37.80;34.00
10451;DHT22;5273;51.290;6.918;2023-06-10T07:57:43;38.30;34.90
10451;DHT22;5273;51.290;6.918;2023-06-10T08:00:10;38.90;32.90
10451;DHT22;5273;51.290;6.918;2023-06-10T08:02:37;39.30;32.10
10451;DHT22;5273;51.290;6.918;2023-06-10T08:05:04;39.60;31.20
10451;DHT22;5273;51.290;6.918;2023-06-10T08:07:31;39.40;31.70
10451;DHT22;5273;51.290;6.918;2023-06-10T08:09:58;39.20;30.90
10451;DHT22;5273;51.290;6.918;2023-06-10T08:12:26;39.40;31.90
10451;DHT22;5273;51.290;6.918;2023-06-10T08:14:53;39.40;30.90
10451;DHT22;5273;51.290;6.918;2023-06-10T08:17:20;39.50;30.50
10451;DHT22;5273;51.290;6.918;2023-06-10T08:19:47;39.70;31.50
10451;DHT22;5273;51.290;6.918;2023-06-10T08:22:14;40.00;30.40
10451;DHT22;5273;51.290;6.918;2023-06-10T08:24:41;40.00;30.30
10451;DHT22;5273;51.290;6.918;2023-06-10T08:27:08;40.10;30.00
10451;DHT22;5273;51.290;6.918;2023-06-10T08:29:39;40.50;30.00
10451;DHT22;5273;51.290;6.918;2023-06-10T08:32:06;41.00;30.10
10451;DHT22;5273;51.290;6.918;2023-06-10T08:34:34;41.60;30.00
10451;DHT22;5273;51.290;6.918;2023-06-10T08:37:01;42.10;28.80
10451;DHT22;5273;51.290;6.918;2023-06-10T08:39:28;42.60;30.50
10451;DHT22;5273;51.290;6.918;2023-06-10T08:42:04;43.10;29.00
10451;DHT22;5273;51.290;6.918;2023-06-10T08:44:38;43.50;28.40
10451;DHT22;5273;51.290;6.918;2023-06-10T08:47:10;43.70;27.80
10451;DHT22;5273;51.290;6.918;2023-06-10T08:49:43;44.00;27.90
10451;DHT22;5273;51.290;6.918;2023-06-10T08:52:13;44.20;28.10
10451;DHT22;5273;51.290;6.918;2023-06-10T08:54:43;44.50;28.30
10451;DHT22;5273;51.290;6.918;2023-06-10T08:57:10;44.50;27.80
10451;DHT22;5273;51.290;6.918;2023-06-10T08:59:38;44.50;27.90
10451;DHT22;5273;51.290;6.918;2023-06-10T09:02:07;44.60;26.90
10451;DHT22;5273;51.290;6.918;2023-06-10T09:04:36;44.90;27.40
10451;DHT22;5273;51.290;6.918;2023-06-10T09:07:04;45.20;26.50
10451;DHT22;5273;51.290;6.918;2023-06-10T09:09:32;45.60;26.30
10451;DHT22;5273;51.290;6.918;2023-06-10T09:12:01;45.60;26.10
10451;DHT22;5273;51.290;6.918;2023-06-10T09:14:28;45.80;25.90
10451;DHT22;5273;51.290;6.918;2023-06-10T09:16:57;46.00;25.70
10451;DHT22;5273;51.290;6.918;2023-06-10T09:19:23;46.30;24.90
10451;DHT22;5273;51.290;6.918;2023-06-10T09:21:51;46.20;24.40
10451;DHT22;5273;51.290;6.918;2023-06-10T09:24:18;46.00;25.40
10451;DHT22;5273;51.290;6.918;2023-06-10T09:26:45;45.70;24.50
10451;DHT22;5273;51.290;6.918;2023-06-10T09:29:12;45.00;25.00
10451;DHT22;5273;51.290;6.918;2023-06-10T09:31:39;44.50;25.00
10451;DHT22;5273;51.290;6.918;2023-06-10T09:34:09;44.20;25.50
10451;DHT22;5273;51.290;6.918;2023-06-10T09:36:37;43.70;26.10
10451;DHT22;5273;51.290;6.918;2023-06-10T09:39:05;43.80;26.70
10451;DHT22;5273;51.290;6.918;2023-06-10T09:41:40;44.30;25.20
10451;DHT22;5273;51.290;6.918;2023-06-10T09:44:11;44.80;25.70
10451;DHT22;5273;51.290;6.918;2023-06-10T09:46:39;45.50;25.00
10451;DHT22;5273;51.290;6.918;2023-06-10T09:49:05;45.90;24.30
10451;DHT22;5273;51.290;6.918;2023-06-10T09:51:34;46.20;24.10
10451;DHT22;5273;51.290;6.918;2023-06-10T09:54:02;46.50;23.50
10451;DHT22;5273;51.290;6.918;2023-06-10T09:56:34;46.50;23.90
10451;DHT22;5273;51.290;6.918;2023-06-10T09:59:01;46.20;23.90
10451;DHT22;5273;51.290;6.918;2023-06-10T10:01:30;46.20;24.80
10451;DHT22;5273;51.290;6.918;2023-06-10T10:03:59;46.30;24.20
10451;DHT22;5273;51.290;6.918;2023-06-10T10:06:26;46.60;24.40
10451;DHT22;5273;51.290;6.918;2023-06-10T10:08:55;46.70;22.90
10451;DHT22;5273;51.290;6.918;2023-06-10T10:11:23;46.90;23.20
10451;DHT22;5273;51.290;6.918;2023-06-10T10:13:52;47.00;22.70
10451;DHT22;5273;51.290;6.918;2023-06-10T10:16:20;47.10;22.90
10451;DHT22;5273;51.290;6.918;2023-06-10T10:18:52;47.40;23.30
10451;DHT22;5273;51.290;6.918;2023-06-10T10:21:23;47.80;23.40
10451;DHT22;5273;51.290;6.918;2023-06-10T10:23:58;48.10;22.50
10451;DHT22;5273;51.290;6.918;2023-06-10T10:26:29;48.00;21.40
10451;DHT22;5273;51.290;6.918;2023-06-10T10:29:05;47.60;21.90
10451;DHT22;5273;51.290;6.918;2023-06-10T10:31:35;47.50;22.50
10451;DHT22;5273;51.290;6.918;2023-06-10T10:34:06;47.80;22.60
10451;DHT22;5273;51.290;6.918;2023-06-10T10:36:34;47.80;21.80
10451;DHT22;5273;51.290;6.918;2023-06-10T10:39:03;47.60;21.40
10451;DHT22;5273;51.290;6.918;2023-06-10T10:41:31;46.90;21.80
10451;DHT22;5273;51.290;6.918;2023-06-10T10:43:59;46.50;22.40
10451;DHT22;5273;51.290;6.918;2023-06-10T10:46:26;46.40;23.20
10451;DHT22;5273;51.290;6.918;2023-06-10T10:48:53;45.90;23.10
10451;DHT22;5273;51.290;6.918;2023-06-10T10:51:22;45.10;23.20
10451;DHT22;5273;51.290;6.918;2023-06-10T10:54:13;44.00;23.90
10451;DHT22;5273;51.290;6.918;2023-06-10T10:56:45;43.00;24.40
10451;DHT22;5273;51.290;6.918;2023-06-10T11:02:44;41.80;25.40
10451;DHT22;5273;51.290;6.918;2023-06-10T11:05:16;40.70;25.30
10451;DHT22;5273;51.290;6.918;2023-06-10T11:07:53;39.80;25.60
10451;DHT22;5273;51.290;6.918;2023-06-10T11:10:29;39.50;27.40
10451;DHT22;5273;51.290;6.918;2023-06-10T11:12:57;39.20;25.90
10451;DHT22;5273;51.290;6.918;2023-06-10T11:15:25;38.40;27.80
10451;DHT22;5273;51.290;6.918;2023-06-10T11:18:12;38.00;27.50
10451;DHT22;5273;51.290;6.918;2023-06-10T11:20:51;37.60;29.60
10451;DHT22;5273;51.290;6.918;2023-06-10T11:23:43;37.40;29.80
10451;DHT22;5273;51.290;6.918;2023-06-10T11:26:16;36.80;29.40
10451;DHT22;5273;51.290;6.918;2023-06-10T11:29:07;36.00;30.10
10451;DHT22;5273;51.290;6.918;2023-06-10T11:31:43;35.10;31.60
10451;DHT22;5273;51.290;6.918;2023-06-10T11:34:11;34.90;31.90
10451;DHT22;5273;51.290;6.918;2023-06-10T11:36:39;35.00;32.80
10451;DHT22;5273;51.290;6.918;2023-06-10T11:39:08;35.20;33.00
10451;DHT22;5273;51.290;6.918;2023-06-10T11:41:38;35.20;31.70
10451;DHT22;5273;51.290;6.918;2023-06-10T11:44:08;34.90;31.00
10451;DHT22;5273;51.290;6.918;2023-06-10T11:46:35;34.50;30.60
10451;DHT22;5273;51.290;6.918;2023-06-10T11:49:04;34.10;31.80
10451;DHT22;5273;51.290;6.918;2023-06-10T11:51:34;33.90;32.40
10451;DHT22;5273;51.290;6.918;2023-06-10T11:54:01;33.80;33.00
10451;DHT22;5273;51.290;6.918;2023-06-10T11:56:29;33.70;32.90
10451;DHT22;5273;51.290;6.918;2023-06-10T11:58:58;33.70;33.70
10451;DHT22;5273;51.290;6.918;2023-06-10T12:01:30;33.60;32.70
10451;DHT22;5273;51.290;6.918;2023-06-10T12:03:59;33.40;34.10
10451;DHT22;5273;51.290;6.918;2023-06-10T12:06:26;33.20;34.00
10451;DHT22;5273;51.290;6.918;2023-06-10T12:08:54;32.90;33.70
10451;DHT22;5273;51.290;6.918;2023-06-10T12:11:21;32.60;35.20
10451;DHT22;5273;51.290;6.918;2023-06-10T12:13:49;32.30;35.00
10451;DHT22;5273;51.290;6.918;2023-06-10T12:16:18;32.40;36.30
10451;DHT22;5273;51.290;6.918;2023-06-10T12:18:46;32.30;35.30
10451;DHT22;5273;51.290;6.918;2023-06-10T12:21:23;32.40;35.20
10451;DHT22;5273;51.290;6.918;2023-06-10T12:24:07;32.50;36.30
10451;DHT22;5273;51.290;6.918;2023-06-10T12:26:41;32.40;35.80
10451;DHT22;5273;51.290;6.918;2023-06-10T12:29:19;32.40;35.40
10451;DHT22;5273;51.290;6.918;2023-06-10T12:31:59;32.20;35.00
10451;DHT22;5273;51.290;6.918;2023-06-10T12:34:32;32.30;35.90
10451;DHT22;5273;51.290;6.918;2023-06-10T12:36:59;32.40;36.60
10451;DHT22;5273;51.290;6.918;2023-06-10T12:39:27;32.40;35.70
10451;DHT22;5273;51.290;6.918;2023-06-10T12:41:54;32.40;35.20
10451;DHT22;5273;51.290;6.918;2023-06-10T12:44:32;32.40;35.10
10451;DHT22;5273;51.290;6.918;2023-06-10T12:47:00;32.50;34.10
10451;DHT22;5273;51.290;6.918;2023-06-10T12:49:28;32.70;35.30
10451;DHT22;5273;51.290;6.918;2023-06-10T12:51:55;32.80;34.40
10451;DHT22;5273;51.290;6.918;2023-06-10T12:54:22;32.50;35.40
10451;DHT22;5273;51.290;6.918;2023-06-10T12:56:49;32.20;35.60
10451;DHT22;5273;51.290;6.918;2023-06-10T12:59:15;32.10;37.70
10451;DHT22;5273;51.290;6.918;2023-06-10T13:01:43;32.00;35.70
10451;DHT22;5273;51.290;6.918;2023-06-10T13:04:11;31.70;36.30
10451;DHT22;5273;51.290;6.918;2023-06-10T13:06:38;31.60;36.80
10451;DHT22;5273;51.290;6.918;2023-06-10T13:09:05;31.60;37.70
10451;DHT22;5273;51.290;6.918;2023-06-10T13:11:33;31.50;37.50
10451;DHT22;5273;51.290;6.918;2023-06-10T13:14:01;31.40;36.90
10451;DHT22;5273;51.290;6.918;2023-06-10T13:16:27;31.50;39.60
10451;DHT22;5273;51.290;6.918;2023-06-10T13:18:55;31.50;38.40
10451;DHT22;5273;51.290;6.918;2023-06-10T13:21:23;31.50;37.70
10451;DHT22;5273;51.290;6.918;2023-06-10T13:23:50;31.50;37.50
10451;DHT22;5273;51.290;6.918;2023-06-10T13:26:17;31.60;37.90
10451;DHT22;5273;51.290;6.918;2023-06-10T13:28:44;31.60;35.80
10451;DHT22;5273;51.290;6.918;2023-06-10T13:31:11;31.50;36.70
10451;DHT22;5273;51.290;6.918;2023-06-10T13:33:37;31.60;38.20
10451;DHT22;5273;51.290;6.918;2023-06-10T13:36:05;31.90;38.10
10451;DHT22;5273;51.290;6.918;2023-06-10T13:38:33;31.80;36.70
10451;DHT22;5273;51.290;6.918;2023-06-10T13:41:00;31.70;36.70
10451;DHT22;5273;51.290;6.918;2023-06-10T13:43:26;31.80;36.20
10451;DHT22;5273;51.290;6.918;2023-06-10T13:45:54;31.80;37.00
10451;DHT22;5273;51.290;6.918;2023-06-10T13:48:21;31.90;38.10
10451;DHT22;5273;51.290;6.918;2023-06-10T13:50:47;32.00;37.80
10451;DHT22;5273;51.290;6.918;2023-06-10T13:53:14;32.00;38.60
10451;DHT22;5273;51.290;6.918;2023-06-10T13:55:43;31.80;37.80
10451;DHT22;5273;51.290;6.918;2023-06-10T13:58:09;31.70;37.50
10451;DHT22;5273;51.290;6.918;2023-06-10T14:00:36;31.60;37.40
10451;DHT22;5273;51.290;6.918;2023-06-10T14:03:03;31.70;37.70
10451;DHT22;5273;51.290;6.918;2023-06-10T14:05:30;31.70;37.50
10451;DHT22;5273;51.290;6.918;2023-06-10T14:07:57;31.90;38.70
10451;DHT22;5273;51.290;6.918;2023-06-10T14:10:24;32.10;38.10
10451;DHT22;5273;51.290;6.918;2023-06-10T14:12:52;32.20;36.50
10451;DHT22;5273;51.290;6.918;2023-06-10T14:15:19;32.10;38.40
10451;DHT22;5273;51.290;6.918;2023-06-10T14:17:45;31.70;36.40
10451;DHT22;5273;51.290;6.918;2023-06-10T14:20:12;31.50;36.20
10451;DHT22;5273;51.290;6.918;2023-06-10T14:22:39;31.30;36.90
10451;DHT22;5273;51.290;6.918;2023-06-10T14:25:07;31.20;37.20
10451;DHT22;5273;51.290;6.918;2023-06-10T14:27:34;31.10;38.80
10451;DHT22;5273;51.290;6.918;2023-06-10T14:30:02;31.10;37.80
10451;DHT22;5273;51.290;6.918;2023-06-10T14:32:30;30.90;38.40
10451;DHT22;5273;51.290;6.918;2023-06-10T14:34:56;31.20;39.30
10451;DHT22;5273;51.290;6.918;2023-06-10T14:37:23;31.40;38.00
10451;DHT22;5273;51.290;6.918;2023-06-10T14:39:50;31.30;36.90
10451;DHT22;5273;51.290;6.918;2023-06-10T14:42:17;31.30;38.20
10451;DHT22;5273;51.290;6.918;2023-06-10T14:44:43;31.30;39.70
10451;DHT22;5273;51.290;6.918;2023-06-10T14:47:12;31.40;38.20
10451;DHT22;5273;51.290;6.918;2023-06-10T14:49:38;31.40;39.20
10451;DHT22;5273;51.290;6.918;2023-06-10T14:52:07;31.30;39.10
10451;DHT22;5273;51.290;6.918;2023-06-10T14:54:34;31.10;37.90
10451;DHT22;5273;51.290;6.918;2023-06-10T14:57:01;31.00;38.30
10451;DHT22;5273;51.290;6.918;2023-06-10T14:59:28;30.90;39.00
10451;DHT22;5273;51.290;6.918;2023-06-10T15:01:55;31.10;40.00
10451;DHT22;5273;51.290;6.918;2023-06-10T15:04:24;31.20;41.60
10451;DHT22;5273;51.290;6.918;2023-06-10T15:06:50;31.30;38.10
10451;DHT22;5273;51.290;6.918;2023-06-10T15:09:17;31.20;38.40
10451;DHT22;5273;51.290;6.918;2023-06-10T15:11:44;31.10;38.30
10451;DHT22;5273;51.290;6.918;2023-06-10T15:14:11;30.90;39.60
10451;DHT22;5273;51.290;6.918;2023-06-10T15:16:38;31.00;37.90
10451;DHT22;5273;51.290;6.918;2023-06-10T15:19:05;31.00;38.20
10451;DHT22;5273;51.290;6.918;2023-06-10T15:21:35;31.10;38.40
10451;DHT22;5273;51.290;6.918;2023-06-10T15:24:02;31.10;37.60
10451;DHT22;5273;51.290;6.918;2023-06-10T15:26:29;31.00;38.50
10451;DHT22;5273;51.290;6.918;2023-06-10T15:28:56;30.90;38.40
10451;DHT22;5273;51.290;6.918;2023-06-10T15:31:23;30.80;38.50
10451;DHT22;5273;51.290;6.918;2023-06-10T15:33:50;30.80;39.40
10451;DHT22;5273;51.290;6.918;2023-06-10T15:36:17;30.80;38.00
10451;DHT22;5273;51.290;6.918;2023-06-10T15:38:45;30.90;39.20
10451;DHT22;5273;51.290;6.918;2023-06-10T15:41:12;31.00;38.30
10451;DHT22;5273;51.290;6.918;2023-06-10T15:43:40;30.90;38.70
10451;DHT22;5273;51.290;6.918;2023-06-10T15:46:07;30.80;40.10
10451;DHT22;5273;51.290;6.918;2023-06-10T15:48:34;30.80;38.30
10451;DHT22;5273;51.290;6.918;2023-06-10T15:51:01;30.60;37.70
10451;DHT22;5273;51.290;6.918;2023-06-10T15:53:28;30.60;37.70